Time;durP1;ratioP1;P1;durP2;ratioP2;P2;SDS_P1;SDS_P2;PMS_P1;PMS_P2;Temp;Humidity;BMP_temperature;BMP_pressure;BME280_temperature;BME280_humidity;BME280_pressure;Samples;Min_cycle;Max_cycle;Signal;HPM_P1;HPM_P2
2023/06/24 00:01:13;;;;;;;0.00;0.00;;;19.10;99.80;;;;;;5048965;28;20772;-62
2023/06/24 00:03:39;;;;;;;0.00;0.00;;;19.00;99.90;;;;;;5049767;28;20679;-62
2023/06/24 00:06:04;;;;;;;0.08;0.08;;;18.90;99.90;;;;;;5049794;28;20213;-61
2023/06/24 00:08:34;;;;;;;0.00;0.00;;;18.90;99.90;;;;;;5049602;28;20213;-62
2023/06/24 00:11:02;;;;;;;0.20;0.20;;;18.80;99.90;;;;;;5049560;28;20205;-62
2023/06/24 00:13:28;;;;;;;0.00;0.00;;;18.70;99.90;;;;;;5049490;28;20181;-61
2023/06/24 00:15:54;;;;;;;0.00;0.00;;;18.70;99.90;;;;;;5049370;28;20185;-62
2023/06/24 00:18:20;;;;;;;0.00;0.00;;;18.60;99.90;;;;;;5048881;28;20192;-61
2023/06/24 00:20:45;;;;;;;0.20;0.20;;;18.60;99.90;;;;;;5049306;28;20185;-62
2023/06/24 00:23:16;;;;;;;0.10;0.10;;;18.60;99.90;;;;;;5049291;28;20256;-62
2023/06/24 00:25:42;;;;;;;0.00;0.00;;;18.60;99.90;;;;;;5049800;28;20186;-62
2023/06/24 00:28:08;;;;;;;0.10;0.10;;;18.50;99.90;;;;;;5048178;28;20344;-62
2023/06/24 00:30:33;;;;;;;0.00;0.00;;;18.50;99.90;;;;;;5049525;28;20185;-62
2023/06/24 00:32:59;;;;;;;0.00;0.00;;;18.50;99.90;;;;;;5047842;28;20266;-61
2023/06/24 00:35:24;;;;;;;0.08;0.08;;;18.50;99.90;;;;;;5049770;28;20201;-62
2023/06/24 00:37:50;;;;;;;0.00;0.00;;;18.40;99.90;;;;;;5049461;28;20564;-61
2023/06/24 00:40:16;;;;;;;0.00;0.00;;;18.30;99.90;;;;;;5049944;28;20197;-62
2023/06/24 00:42:45;;;;;;;0.00;0.00;;;18.20;99.90;;;;;;5049656;28;20661;-62
2023/06/24 00:45:11;;;;;;;0.00;0.00;;;18.10;99.90;;;;;;5050078;28;20177;-61
2023/06/24 00:47:38;;;;;;;0.00;0.00;;;18.10;99.90;;;;;;5049342;28;20202;-62
2023/06/24 00:50:04;;;;;;;0.00;0.00;;;18.00;99.90;;;;;;5049711;28;20185;-62
2023/06/24 00:52:30;;;;;;;0.28;0.20;;;17.90;99.90;;;;;;5052501;28;20239;-63
2023/06/24 00:54:56;;;;;;;0.00;0.00;;;17.80;99.90;;;;;;5052101;28;20636;-63
2023/06/24 00:57:23;;;;;;;0.00;0.00;;;17.80;99.90;;;;;;5053200;28;20177;-62
2023/06/24 00:59:53;;;;;;;0.08;0.08;;;17.70;99.90;;;;;;5053131;28;20177;-62
2023/06/24 01:02:20;;;;;;;0.10;0.10;;;17.70;99.90;;;;;;5053231;28;20172;-62
2023/06/24 01:04:48;;;;;;;0.00;0.00;;;17.70;99.90;;;;;;5052685;28;20621;-62
2023/06/24 01:07:15;;;;;;;0.00;0.00;;;17.60;99.90;;;;;;5053054;28;20189;-62
2023/06/24 01:09:41;;;;;;;0.15;0.15;;;17.50;99.90;;;;;;5052920;28;20226;-62
2023/06/24 01:12:07;;;;;;;0.00;0.00;;;17.50;99.90;;;;;;5052702;28;20256;-62
2023/06/24 01:14:35;;;;;;;0.00;0.00;;;17.50;99.90;;;;;;5052675;28;20170;-62
2023/06/24 01:17:16;;;;;;;0.00;0.00;;;17.40;99.90;;;;;;5052863;28;20621;-62
2023/06/24 01:20:11;;;;;;;0.00;0.00;;;17.40;99.90;;;;;;5052287;28;20181;-62
2023/06/24 01:23:22;;;;;;;0.00;0.00;;;17.40;99.90;;;;;;5052550;28;20188;-62
2023/06/24 01:26:19;;;;;;;0.00;0.00;;;17.40;99.90;;;;;;5030835;28;20281;-62
2023/06/24 01:29:02;;;;;;;0.00;0.00;;;17.30;99.90;;;;;;5052060;28;20213;-62
2023/06/24 01:31:37;;;;;;;0.00;0.00;;;17.20;99.90;;;;;;5051496;28;20192;-62
2023/06/24 01:34:23;;;;;;;0.00;0.00;;;17.20;99.90;;;;;;5051065;28;20189;-62
2023/06/24 01:36:57;;;;;;;0.00;0.00;;;17.20;99.90;;;;;;5052446;28;20177;-62
2023/06/24 01:39:25;;;;;;;0.00;0.00;;;17.20;99.90;;;;;;5052224;28;20168;-62
2023/06/24 01:41:58;;;;;;;0.75;0.25;;;17.10;99.90;;;;;;5032412;28;20181;-62
2023/06/24 01:44:27;;;;;;;0.08;0.08;;;17.10;99.90;;;;;;5051555;28;20184;-62
2023/06/24 01:46:57;;;;;;;0.00;0.00;;;17.10;99.90;;;;;;5052440;28;20731;-62
2023/06/24 01:49:25;;;;;;;0.00;0.00;;;17.10;99.90;;;;;;5051634;28;20251;-62
2023/06/24 01:51:51;;;;;;;0.00;0.00;;;17.00;99.90;;;;;;5051483;28;20177;-62
2023/06/24 01:54:22;;;;;;;0.15;0.15;;;17.00;99.90;;;;;;5051731;28;20190;-62
2023/06/24 01:56:49;;;;;;;0.17;0.17;;;16.90;99.90;;;;;;5051874;28;20268;-62
2023/06/24 01:59:17;;;;;;;0.00;0.00;;;16.90;99.90;;;;;;5051195;28;20269;-62
2023/06/24 02:01:44;;;;;;;0.00;0.00;;;16.90;99.90;;;;;;5051310;28;20185;-63
2023/06/24 02:04:11;;;;;;;0.00;0.00;;;16.90;99.90;;;;;;5050269;28;20212;-62
2023/06/24 02:06:39;;;;;;;0.00;0.00;;;16.80;99.90;;;;;;5051611;28;20272;-62
2023/06/24 02:09:05;;;;;;;0.00;0.00;;;16.80;99.90;;;;;;5050415;28;20220;-62
2023/06/24 02:11:33;;;;;;;0.00;0.00;;;16.70;99.90;;;;;;5064880;28;20207;-62
2023/06/24 02:14:01;;;;;;;0.00;0.00;;;16.70;99.90;;;;;;5053830;28;20216;-62
2023/06/24 02:16:28;;;;;;;0.00;0.00;;;16.60;99.90;;;;;;5050647;28;20165;-62
2023/06/24 02:18:56;;;;;;;0.20;0.20;;;16.60;99.90;;;;;;5033251;28;20209;-62
2023/06/24 02:21:24;;;;;;;0.00;0.00;;;16.60;99.90;;;;;;5031811;28;20181;-62
2023/06/24 02:23:51;;;;;;;0.00;0.00;;;16.60;99.90;;;;;;5038518;28;20197;-62
2023/06/24 02:26:17;;;;;;;0.00;0.00;;;16.50;99.90;;;;;;5051540;28;20225;-62
2023/06/24 02:28:46;;;;;;;0.00;0.00;;;16.60;99.90;;;;;;5051210;28;20274;-62
2023/06/24 02:31:13;;;;;;;0.00;0.00;;;16.60;99.90;;;;;;5051963;28;20177;-62
2023/06/24 02:33:39;;;;;;;0.00;0.00;;;16.50;99.90;;;;;;5051531;28;20180;-62
2023/06/24 02:36:04;;;;;;;0.00;0.00;;;16.50;99.90;;;;;;5051228;28;20177;-62
2023/06/24 02:38:30;;;;;;;0.00;0.00;;;16.50;99.90;;;;;;5051497;28;20283;-62
2023/06/24 02:40:56;;;;;;;0.00;0.00;;;16.40;99.90;;;;;;5051742;28;20621;-62
2023/06/24 02:43:21;;;;;;;0.00;0.00;;;16.40;99.90;;;;;;5051250;28;20186;-62
2023/06/24 02:45:48;;;;;;;0.00;0.00;;;16.40;99.90;;;;;;5051331;28;20598;-62
2023/06/24 02:48:16;;;;;;;0.08;0.08;;;16.40;99.90;;;;;;5051439;28;20304;-62
2023/06/24 02:50:44;;;;;;;0.00;0.00;;;16.40;99.90;;;;;;5050843;28;20180;-62
2023/06/24 02:53:11;;;;;;;0.00;0.00;;;16.40;99.90;;;;;;5051200;28;20267;-62
2023/06/24 02:55:39;;;;;;;0.00;0.00;;;16.40;99.90;;;;;;5050816;28;20170;-62
2023/06/24 02:58:07;;;;;;;0.00;0.00;;;16.40;99.90;;;;;;5050890;28;20181;-62
2023/06/24 03:00:34;;;;;;;0.00;0.00;;;16.30;99.90;;;;;;5050676;28;20165;-62
2023/06/24 03:03:01;;;;;;;0.00;0.00;;;16.30;99.90;;;;;;5045895;28;20551;-62
2023/06/24 03:05:28;;;;;;;0.00;0.00;;;16.30;99.90;;;;;;5040931;28;20176;-62
2023/06/24 03:07:53;;;;;;;0.00;0.00;;;16.30;99.90;;;;;;5049953;28;20271;-63
2023/06/24 03:10:19;;;;;;;0.00;0.00;;;16.30;99.90;;;;;;5050722;28;20177;-62
2023/06/24 03:12:44;;;;;;;0.00;0.00;;;16.30;99.90;;;;;;5050121;28;20174;-62
2023/06/24 03:15:10;;;;;;;0.00;0.00;;;16.20;99.90;;;;;;5050566;28;20690;-62
2023/06/24 03:17:36;;;;;;;0.00;0.00;;;16.20;99.90;;;;;;5050697;28;20173;-63
2023/06/24 03:20:04;;;;;;;0.00;0.00;;;16.20;99.90;;;;;;5050682;28;20185;-62
2023/06/24 03:22:29;;;;;;;0.00;0.00;;;16.10;99.90;;;;;;5050902;28;20644;-62
2023/06/24 03:24:55;;;;;;;0.10;0.10;;;16.20;99.90;;;;;;5050834;28;20173;-63
2023/06/24 03:27:21;;;;;;;0.00;0.00;;;16.10;99.90;;;;;;5050099;28;20221;-63
2023/06/24 03:29:46;;;;;;;0.00;0.00;;;16.10;99.90;;;;;;5050513;28;20223;-62
2023/06/24 03:32:12;;;;;;;0.05;0.05;;;16.10;99.90;;;;;;5050531;28;20204;-62
2023/06/24 03:34:38;;;;;;;0.00;0.00;;;16.00;99.90;;;;;;5050295;28;20197;-62
2023/06/24 03:37:04;;;;;;;0.00;0.00;;;16.00;99.90;;;;;;5050174;28;20224;-62
2023/06/24 03:39:29;;;;;;;0.10;0.10;;;16.00;99.90;;;;;;5050616;28;20177;-62
2023/06/24 03:41:55;;;;;;;0.00;0.00;;;16.00;99.90;;;;;;5050114;28;20188;-62
2023/06/24 03:44:20;;;;;;;0.00;0.00;;;16.00;99.90;;;;;;5048752;28;20182;-63
2023/06/24 03:46:46;;;;;;;0.00;0.00;;;16.00;99.90;;;;;;5050060;28;20188;-62
2023/06/24 03:49:11;;;;;;;0.10;0.10;;;16.00;99.90;;;;;;5050113;28;20679;-62
2023/06/24 03:51:37;;;;;;;0.00;0.00;;;16.00;99.90;;;;;;5049212;28;20659;-63
2023/06/24 03:54:02;;;;;;;0.00;0.00;;;16.00;99.90;;;;;;5064501;28;20267;-62
2023/06/24 03:56:28;;;;;;;0.13;0.10;;;16.00;99.90;;;;;;5069582;28;20226;-62
2023/06/24 03:58:53;;;;;;;0.10;0.10;;;16.10;99.90;;;;;;5050402;28;20592;-62
2023/06/24 04:01:19;;;;;;;0.03;0.03;;;16.10;99.90;;;;;;5050338;28;20187;-62
2023/06/24 04:03:46;;;;;;;0.20;0.20;;;16.20;99.90;;;;;;5050135;28;20170;-62
2023/06/24 04:06:11;;;;;;;0.10;0.10;;;16.30;99.90;;;;;;5050149;28;20655;-62
2023/06/24 04:08:39;;;;;;;0.00;0.00;;;16.30;99.90;;;;;;5050630;28;20217;-62
2023/06/24 04:11:06;;;;;;;0.00;0.00;;;16.40;99.90;;;;;;5060255;28;20185;-62
2023/06/24 04:13:32;;;;;;;0.00;0.00;;;16.50;99.90;;;;;;5050188;28;20224;-62
2023/06/24 04:15:58;;;;;;;0.00;0.00;;;16.60;99.90;;;;;;5049800;28;20189;-61
2023/06/24 04:18:23;;;;;;;0.00;0.00;;;16.70;99.90;;;;;;5049725;28;20272;-62
2023/06/24 04:20:49;;;;;;;0.00;0.00;;;16.80;99.90;;;;;;5047751;28;20170;-61
2023/06/24 04:23:14;;;;;;;0.00;0.00;;;17.00;99.90;;;;;;5049600;28;20192;-61
2023/06/24 04:25:41;;;;;;;0.00;0.00;;;17.20;99.90;;;;;;5050015;28;20178;-61
2023/06/24 04:28:07;;;;;;;0.00;0.00;;;17.50;99.90;;;;;;5053433;28;20699;-62
2023/06/24 04:30:35;;;;;;;0.10;0.10;;;17.70;99.90;;;;;;5052384;28;20193;-62
2023/06/24 04:33:01;;;;;;;0.00;0.00;;;17.90;99.90;;;;;;5053597;28;20645;-62
2023/06/24 04:35:27;;;;;;;0.00;0.00;;;18.10;99.90;;;;;;5053138;28;20181;-62
2023/06/24 04:37:52;;;;;;;0.00;0.00;;;18.30;99.90;;;;;;5052775;28;20192;-62
2023/06/24 04:40:19;;;;;;;0.00;0.00;;;18.40;99.90;;;;;;5053217;28;20165;-62
2023/06/24 04:42:45;;;;;;;0.00;0.00;;;18.60;99.90;;;;;;5052340;28;20197;-61
2023/06/24 04:45:11;;;;;;;0.25;0.25;;;18.90;99.90;;;;;;5053429;28;20212;-61
2023/06/24 04:47:36;;;;;;;0.00;0.00;;;19.10;99.90;;;;;;5057530;28;20616;-62
2023/06/24 04:50:02;;;;;;;0.00;0.00;;;19.20;99.90;;;;;;5053490;28;20258;-62
2023/06/24 04:52:28;;;;;;;0.00;0.00;;;19.40;99.90;;;;;;5056441;28;20173;-61
2023/06/24 04:54:53;;;;;;;0.00;0.00;;;19.60;99.90;;;;;;5073567;28;20686;-62
2023/06/24 04:57:34;;;;;;;0.00;0.00;;;19.90;99.90;;;;;;5073511;28;20176;-62
2023/06/24 04:59:59;;;;;;;0.00;0.00;;;20.10;99.90;;;;;;5067073;28;20180;-62
2023/06/24 05:02:25;;;;;;;0.00;0.00;;;20.30;99.90;;;;;;5053272;28;20173;-62
2023/06/24 05:04:52;;;;;;;0.00;0.00;;;20.50;99.90;;;;;;5053166;28;20181;-62
2023/06/24 05:07:17;;;;;;;0.00;0.00;;;20.70;99.90;;;;;;5052701;28;20189;-63
2023/06/24 05:09:43;;;;;;;0.00;0.00;;;20.90;99.90;;;;;;5052814;28;20281;-62
2023/06/24 05:12:09;;;;;;;0.00;0.00;;;21.20;99.90;;;;;;5053053;28;20170;-62
2023/06/24 05:14:36;;;;;;;0.00;0.00;;;21.60;99.90;;;;;;5053045;28;20675;-62
2023/06/24 05:17:02;;;;;;;0.00;0.00;;;22.00;99.90;;;;;;5052516;28;20667;-63
2023/06/24 05:19:28;;;;;;;0.00;0.00;;;22.40;99.40;;;;;;5051745;28;20532;-62
2023/06/24 05:21:54;;;;;;;0.00;0.00;;;22.70;98.90;;;;;;5052901;28;20178;-62
2023/06/24 05:24:19;;;;;;;0.00;0.00;;;23.10;98.20;;;;;;5052771;28;20178;-62
2023/06/24 05:26:48;;;;;;;0.00;0.00;;;23.30;97.60;;;;;;5052072;28;20243;-61
2023/06/24 05:29:13;;;;;;;0.00;0.00;;;23.60;96.90;;;;;;5051660;28;20224;-61
2023/06/24 05:31:40;;;;;;;0.00;0.00;;;24.00;96.50;;;;;;5050792;28;20173;-61
2023/06/24 05:34:06;;;;;;;0.00;0.00;;;24.40;95.50;;;;;;5056484;28;20194;-62
2023/06/24 05:36:31;;;;;;;0.03;0.03;;;24.70;94.80;;;;;;5072093;28;20184;-62
2023/06/24 05:38:57;;;;;;;0.00;0.00;;;25.00;94.20;;;;;;5071992;28;20183;-63
2023/06/24 05:41:22;;;;;;;0.00;0.00;;;25.30;93.40;;;;;;5071767;28;20169;-62
2023/06/24 05:43:48;;;;;;;0.25;0.25;;;25.60;92.90;;;;;;5052303;28;20587;-61
2023/06/24 05:46:13;;;;;;;0.00;0.00;;;26.10;92.20;;;;;;5051589;28;20184;-63
2023/06/24 05:48:39;;;;;;;0.00;0.00;;;26.40;91.30;;;;;;5051889;28;20244;-63
2023/06/24 05:51:05;;;;;;;0.00;0.00;;;26.80;90.20;;;;;;5051897;28;20181;-62
2023/06/24 05:53:30;;;;;;;0.00;0.00;;;27.30;88.20;;;;;;5051461;28;20256;-62
2023/06/24 05:55:56;;;;;;;0.00;0.00;;;27.70;86.60;;;;;;5051909;28;20731;-63
2023/06/24 05:58:21;;;;;;;0.10;0.10;;;28.10;84.20;;;;;;5051976;28;20216;-63
2023/06/24 06:00:47;;;;;;;0.00;0.00;;;28.50;82.30;;;;;;5052026;28;20169;-62
2023/06/24 06:03:12;;;;;;;0.00;0.00;;;29.00;80.20;;;;;;5051985;28;20652;-61
2023/06/24 06:05:38;;;;;;;0.00;0.00;;;29.40;78.10;;;;;;5051994;28;20178;-64
2023/06/24 06:08:03;;;;;;;0.00;0.00;;;29.80;76.00;;;;;;5049083;28;20217;-60
2023/06/24 06:10:29;;;;;;;0.00;0.00;;;30.10;74.80;;;;;;5051515;28;20173;-63
2023/06/24 06:12:55;;;;;;;0.00;0.00;;;30.40;72.80;;;;;;5051529;28;20193;-65
2023/06/24 06:15:21;;;;;;;0.00;0.00;;;30.70;70.90;;;;;;5051334;28;20185;-65
2023/06/24 06:17:46;;;;;;;0.00;0.00;;;31.00;68.70;;;;;;5046831;28;20193;-64
2023/06/24 06:20:12;;;;;;;0.00;0.00;;;31.20;67.70;;;;;;5042386;28;20213;-65
2023/06/24 06:22:38;;;;;;;0.00;0.00;;;31.30;67.10;;;;;;5051740;28;20182;-65
2023/06/24 06:25:07;;;;;;;0.00;0.00;;;31.50;65.90;;;;;;5051244;28;20594;-65
2023/06/24 06:27:33;;;;;;;0.00;0.00;;;31.80;64.60;;;;;;5051346;28;20672;-65
2023/06/24 06:29:58;;;;;;;0.13;0.13;;;32.20;63.80;;;;;;5051329;28;20177;-67
2023/06/24 06:32:24;;;;;;;0.00;0.00;;;32.50;63.50;;;;;;5051645;28;20252;-65
2023/06/24 06:34:49;;;;;;;0.05;0.03;;;32.80;62.20;;;;;;5051473;28;20195;-66
2023/06/24 06:37:15;;;;;;;0.00;0.00;;;32.90;60.80;;;;;;5051557;28;20169;-65
2023/06/24 06:39:40;;;;;;;0.00;0.00;;;33.00;60.00;;;;;;5049399;28;20818;-65
2023/06/24 06:42:06;;;;;;;0.00;0.00;;;33.40;60.10;;;;;;5049191;28;20176;-66
2023/06/24 06:44:32;;;;;;;0.00;0.00;;;33.90;59.00;;;;;;5051376;28;20277;-65
2023/06/24 06:46:57;;;;;;;0.10;0.10;;;34.30;58.00;;;;;;5051378;28;20660;-65
2023/06/24 06:49:23;;;;;;;0.00;0.00;;;34.70;57.60;;;;;;5049711;28;20247;-64
2023/06/24 06:51:48;;;;;;;0.00;0.00;;;35.10;56.60;;;;;;5050448;28;20176;-65
2023/06/24 06:54:14;;;;;;;0.00;0.00;;;35.20;55.30;;;;;;5050706;28;20212;-65
2023/06/24 06:56:40;;;;;;;0.00;0.00;;;35.50;54.30;;;;;;5050938;28;20180;-65
2023/06/24 06:59:05;;;;;;;0.00;0.00;;;35.80;53.40;;;;;;5051239;28;20199;-65
2023/06/24 07:01:31;;;;;;;0.00;0.00;;;35.90;53.30;;;;;;5050633;28;20176;-64
2023/06/24 07:03:57;;;;;;;0.00;0.00;;;36.20;52.20;;;;;;5054114;28;20187;-64
2023/06/24 07:06:22;;;;;;;0.00;0.00;;;36.40;51.10;;;;;;5059434;28;20176;-65
2023/06/24 07:08:48;;;;;;;0.00;0.00;;;36.60;50.70;;;;;;5050723;28;20223;-65
2023/06/24 07:11:13;;;;;;;0.00;0.00;;;36.80;49.80;;;;;;5050595;28;20177;-65
2023/06/24 07:13:39;;;;;;;0.00;0.00;;;36.80;48.50;;;;;;5050869;28;20567;-64
2023/06/24 07:16:04;;;;;;;0.00;0.00;;;36.80;47.80;;;;;;5043938;28;20632;-65
2023/06/24 07:18:30;;;;;;;0.00;0.00;;;36.80;48.60;;;;;;5050162;28;20279;-64
2023/06/24 07:20:56;;;;;;;0.00;0.00;;;36.90;48.60;;;;;;5049986;28;20180;-65
2023/06/24 07:23:22;;;;;;;0.00;0.00;;;37.10;47.10;;;;;;5050775;28;20177;-65
2023/06/24 07:25:47;;;;;;;0.00;0.00;;;37.10;47.20;;;;;;5050480;28;20187;-65
2023/06/24 07:28:13;;;;;;;0.00;0.00;;;36.90;47.00;;;;;;5050630;28;20228;-64
2023/06/24 07:30:39;;;;;;;0.00;0.00;;;36.90;47.50;;;;;;5050629;28;20628;-65
2023/06/24 07:33:05;;;;;;;0.00;0.00;;;37.10;47.80;;;;;;5050268;28;20230;-65
2023/06/24 07:35:32;;;;;;;0.00;0.00;;;37.30;47.70;;;;;;5049996;28;20172;-64
2023/06/24 07:37:58;;;;;;;0.00;0.00;;;37.60;46.20;;;;;;5050812;28;20252;-64
2023/06/24 07:40:23;;;;;;;0.20;0.20;;;37.60;46.10;;;;;;5050753;28;20277;-64
2023/06/24 07:42:49;;;;;;;0.00;0.00;;;37.70;45.40;;;;;;5049877;28;20589;-65
2023/06/24 07:45:15;;;;;;;0.00;0.00;;;37.80;45.80;;;;;;5050642;28;20595;-65
2023/06/24 07:47:40;;;;;;;0.00;0.00;;;37.50;46.20;;;;;;5050411;28;20560;-65
2023/06/24 07:50:06;;;;;;;0.00;0.00;;;37.70;45.90;;;;;;5050681;28;20254;-66
2023/06/24 07:52:31;;;;;;;0.25;0.25;;;37.90;46.40;;;;;;5050668;28;20556;-64
2023/06/24 07:54:57;;;;;;;0.00;0.00;;;38.00;43.70;;;;;;5050740;28;20179;-65
2023/06/24 07:57:23;;;;;;;0.00;0.00;;;38.00;43.80;;;;;;5049151;28;20179;-65
2023/06/24 07:59:48;;;;;;;0.00;0.00;;;37.60;41.50;;;;;;5049458;28;20225;-64
2023/06/24 08:02:14;;;;;;;0.00;0.00;;;37.30;41.70;;;;;;5052710;28;20161;-65
2023/06/24 08:04:39;;;;;;;0.00;0.00;;;37.20;42.70;;;;;;5054191;28;20250;-65
2023/06/24 08:07:05;;;;;;;0.00;0.00;;;37.20;41.20;;;;;;5054421;28;20184;-65
2023/06/24 08:09:30;;;;;;;0.00;0.00;;;37.30;41.30;;;;;;5053841;28;20563;-65
2023/06/24 08:11:56;;;;;;;0.10;0.10;;;37.30;40.80;;;;;;5053534;28;20248;-65
2023/06/24 08:14:21;;;;;;;0.10;0.10;;;37.00;42.30;;;;;;5054397;28;20183;-65
2023/06/24 08:16:47;;;;;;;0.00;0.00;;;37.10;42.50;;;;;;5052515;28;20680;-65
2023/06/24 08:19:13;;;;;;;0.00;0.00;;;37.30;42.40;;;;;;5053407;28;20177;-65
2023/06/24 08:21:39;;;;;;;0.00;0.00;;;37.00;41.90;;;;;;5054480;28;20177;-66
2023/06/24 08:24:05;;;;;;;0.00;0.00;;;36.80;42.60;;;;;;5054285;28;20173;-65
2023/06/24 08:26:30;;;;;;;0.00;0.00;;;36.90;42.50;;;;;;5054363;28;20311;-65
2023/06/24 08:28:58;;;;;;;0.00;0.00;;;36.90;42.30;;;;;;5054319;28;20753;-65
2023/06/24 08:31:24;;;;;;;0.00;0.00;;;36.60;42.70;;;;;;5054382;28;20223;-65
2023/06/24 08:33:56;;;;;;;0.00;0.00;;;36.70;41.80;;;;;;5053240;28;20231;-65
2023/06/24 08:36:23;;;;;;;0.00;0.00;;;36.80;40.20;;;;;;5051755;28;20176;-65
2023/06/24 08:38:49;;;;;;;0.00;0.00;;;36.60;39.20;;;;;;5054213;28;20181;-64
2023/06/24 08:41:15;;;;;;;0.00;0.00;;;36.70;39.70;;;;;;5054194;28;20175;-64
2023/06/24 08:43:40;;;;;;;0.00;0.00;;;36.70;40.60;;;;;;5053536;28;20690;-65
2023/06/24 08:46:06;;;;;;;0.00;0.00;;;36.50;41.40;;;;;;5053924;28;20165;-64
2023/06/24 08:48:39;;;;;;;0.00;0.00;;;36.10;41.60;;;;;;5053889;28;20204;-65
2023/06/24 08:51:07;;;;;;;0.20;0.00;;;35.90;43.10;;;;;;5051949;28;20597;-65
2023/06/24 08:53:34;;;;;;;0.00;0.00;;;35.80;42.60;;;;;;5053114;28;20189;-65
2023/06/24 08:55:59;;;;;;;0.03;0.03;;;35.60;43.10;;;;;;5054469;28;20592;-65
2023/06/24 08:58:26;;;;;;;0.10;0.10;;;35.40;41.60;;;;;;5053049;28;20185;-65
2023/06/24 09:00:52;;;;;;;0.00;0.00;;;35.40;43.90;;;;;;5053329;28;20703;-64
2023/06/24 09:03:17;;;;;;;0.00;0.00;;;35.30;43.60;;;;;;5063907;28;20181;-64
2023/06/24 09:05:44;;;;;;;0.00;0.00;;;35.10;43.80;;;;;;5054481;28;20173;-65
2023/06/24 09:08:10;;;;;;;0.00;0.00;;;35.20;44.00;;;;;;5053793;28;20205;-65
2023/06/24 09:10:37;;;;;;;0.00;0.00;;;35.50;44.10;;;;;;5064551;28;20183;-65
2023/06/24 09:13:04;;;;;;;0.00;0.00;;;35.80;42.60;;;;;;5060662;28;20177;-64
2023/06/24 09:15:39;;;;;;;0.35;0.35;;;36.00;40.10;;;;;;5053237;28;20181;-65
2023/06/24 09:18:05;;;;;;;0.00;0.00;;;35.90;40.50;;;;;;5053394;28;20265;-64
2023/06/24 09:20:32;;;;;;;0.00;0.00;;;35.70;40.70;;;;;;5051865;28;20683;-64
2023/06/24 09:22:59;;;;;;;0.00;0.00;;;35.60;41.60;;;;;;5053174;28;20173;-65
2023/06/24 09:25:25;;;;;;;0.00;0.00;;;35.60;40.70;;;;;;5053047;28;20190;-64
2023/06/24 09:27:52;;;;;;;0.00;0.00;;;35.30;40.90;;;;;;5053788;28;20225;-64
2023/06/24 09:30:25;;;;;;;0.00;0.00;;;35.00;41.50;;;;;;5053047;28;20177;-64
2023/06/24 09:32:54;;;;;;;0.35;0.10;;;35.00;42.70;;;;;;5053038;28;20181;-64
2023/06/24 09:35:21;;;;;;;0.00;0.00;;;35.20;42.90;;;;;;5053045;28;20557;-64
2023/06/24 09:37:55;;;;;;;0.00;0.00;;;35.40;42.40;;;;;;5056646;28;20636;-65
2023/06/24 09:40:23;;;;;;;0.00;0.00;;;35.50;42.40;;;;;;5064098;28;20184;-65
2023/06/24 09:42:56;;;;;;;0.00;0.00;;;35.50;41.60;;;;;;5060934;28;20534;-64
2023/06/24 09:45:27;;;;;;;0.00;0.00;;;35.50;42.40;;;;;;5072913;28;20265;-64
2023/06/24 09:47:54;;;;;;;0.00;0.00;;;35.70;43.90;;;;;;5072256;28;20630;-64
2023/06/24 09:50:20;;;;;;;0.00;0.00;;;35.80;41.80;;;;;;5064663;28;20576;-65
2023/06/24 09:52:47;;;;;;;0.00;0.00;;;35.60;41.60;;;;;;5052388;28;20699;-64
2023/06/24 09:55:14;;;;;;;0.00;0.00;;;35.10;42.30;;;;;;5047749;28;20232;-64
2023/06/24 09:57:44;;;;;;;0.00;0.00;;;34.60;44.10;;;;;;5036841;28;20185;-64
2023/06/24 10:00:10;;;;;;;0.00;0.00;;;34.40;43.40;;;;;;5051781;28;20715;-65
2023/06/24 10:02:36;;;;;;;0.10;0.10;;;34.50;42.30;;;;;;5052198;28;20185;-64
2023/06/24 10:05:03;;;;;;;0.00;0.00;;;34.20;41.80;;;;;;5052384;28;20659;-65
2023/06/24 10:07:28;;;;;;;0.00;0.00;;;34.10;42.70;;;;;;5054234;28;20180;-65
2023/06/24 10:09:54;;;;;;;0.00;0.00;;;34.20;42.20;;;;;;5055972;28;20674;-63
2023/06/24 10:12:20;;;;;;;0.00;0.00;;;33.90;42.10;;;;;;5056034;28;20635;-63
2023/06/24 10:14:46;;;;;;;0.00;0.00;;;33.70;42.40;;;;;;5068603;28;20180;-64
2023/06/24 10:17:12;;;;;;;0.00;0.00;;;33.40;43.90;;;;;;5070732;28;20177;-64
2023/06/24 10:19:39;;;;;;;0.15;0.15;;;33.40;43.40;;;;;;5067744;28;20176;-63
2023/06/24 10:22:11;;;;;;;0.00;0.00;;;33.70;43.60;;;;;;5051917;28;20177;-63
2023/06/24 10:24:42;;;;;;;0.00;0.00;;;34.00;43.00;;;;;;5051959;28;20183;-63
2023/06/24 10:27:21;;;;;;;0.00;0.00;;;34.20;42.70;;;;;;5051794;28;20287;-63
2023/06/24 10:29:49;;;;;;;0.00;0.00;;;34.00;42.30;;;;;;5050092;28;20219;-64
2023/06/24 10:32:15;;;;;;;0.00;0.00;;;33.70;42.00;;;;;;5051654;28;20192;-63
2023/06/24 10:34:43;;;;;;;0.00;0.00;;;33.30;43.10;;;;;;5050948;28;20177;-62
2023/06/24 10:37:32;;;;;;;0.00;0.00;;;32.90;43.60;;;;;;5050944;28;20181;-63
2023/06/24 10:40:02;;;;;;;0.00;0.00;;;32.90;41.70;;;;;;5044765;28;20699;-62
2023/06/24 10:42:43;;;;;;;0.00;0.00;;;32.90;42.00;;;;;;5051082;28;20283;-63
2023/06/24 10:45:11;;;;;;;0.00;0.00;;;33.00;42.70;;;;;;5051163;28;20188;-64
2023/06/24 10:47:41;;;;;;;0.00;0.00;;;33.10;41.80;;;;;;5050876;28;20176;-65
2023/06/24 10:50:08;;;;;;;0.15;0.15;;;33.30;42.10;;;;;;5050831;28;20250;-62
2023/06/24 10:52:42;;;;;;;0.15;0.10;;;33.60;43.20;;;;;;5050445;28;20589;-62
2023/06/24 10:55:08;;;;;;;0.00;0.00;;;33.90;43.50;;;;;;5050757;28;20180;-62
2023/06/24 10:57:34;;;;;;;0.00;0.00;;;34.30;42.10;;;;;;5049824;28;20197;-60
2023/06/24 11:00:01;;;;;;;0.00;0.00;;;34.30;40.10;;;;;;5050790;28;20379;-61
2023/06/24 11:02:27;;;;;;;0.00;0.00;;;34.00;40.20;;;;;;5049560;28;20200;-61
2023/06/24 11:04:55;;;;;;;0.00;0.00;;;33.90;40.80;;;;;;5050429;28;20180;-61
2023/06/24 11:07:24;;;;;;;0.00;0.00;;;33.80;39.40;;;;;;5048895;28;20200;-61
2023/06/24 11:09:54;;;;;;;0.00;0.00;;;33.30;40.80;;;;;;5050234;28;20193;-61
2023/06/24 11:12:31;;;;;;;0.08;0.08;;;33.10;41.50;;;;;;5050524;28;20177;-61
2023/06/24 11:15:04;;;;;;;0.00;0.00;;;32.70;43.20;;;;;;5050623;28;20181;-61
2023/06/24 11:17:30;;;;;;;0.00;0.00;;;32.50;43.40;;;;;;5049725;28;20640;-61
2023/06/24 11:19:57;;;;;;;0.00;0.00;;;32.70;43.10;;;;;;5050747;28;20231;-61
2023/06/24 11:22:24;;;;;;;0.00;0.00;;;32.80;42.00;;;;;;5050682;28;20272;-61
2023/06/24 11:24:49;;;;;;;0.00;0.00;;;33.00;42.00;;;;;;5050853;28;20589;-61
2023/06/24 11:27:15;;;;;;;0.00;0.00;;;33.10;41.90;;;;;;5050117;28;20224;-61
2023/06/24 11:29:40;;;;;;;0.00;0.00;;;32.80;40.90;;;;;;5050397;28;20683;-60
2023/06/24 11:32:09;;;;;;;0.00;0.00;;;32.90;40.90;;;;;;5050553;28;20636;-61
2023/06/24 11:34:36;;;;;;;0.00;0.00;;;32.70;40.70;;;;;;5050057;28;20701;-61
2023/06/24 11:37:17;;;;;;;0.00;0.00;;;32.70;41.00;;;;;;5050531;28;20208;-61
2023/06/24 11:39:43;;;;;;;0.00;0.00;;;32.90;41.20;;;;;;5049965;28;20200;-61
2023/06/24 11:42:10;;;;;;;0.00;0.00;;;33.00;40.60;;;;;;5050817;28;20181;-61
2023/06/24 11:44:42;;;;;;;0.00;0.00;;;33.10;39.50;;;;;;5050628;28;20643;-61
2023/06/24 11:47:08;;;;;;;0.00;0.00;;;33.10;39.50;;;;;;5050809;28;20177;-62
2023/06/24 11:49:49;;;;;;;0.00;0.00;;;33.00;38.50;;;;;;5050673;28;20208;-61
2023/06/24 11:52:14;;;;;;;0.00;0.00;;;32.90;37.40;;;;;;5050604;28;20176;-61
2023/06/24 11:54:43;;;;;;;0.00;0.00;;;32.80;37.30;;;;;;5050745;28;20181;-62
2023/06/24 11:57:09;;;;;;;0.00;0.00;;;32.80;38.00;;;;;;5050783;28;20685;-61
2023/06/24 11:59:35;;;;;;;0.00;0.00;;;32.70;38.80;;;;;;5050431;28;20184;-61
2023/06/24 12:02:03;;;;;;;0.00;0.00;;;32.60;39.10;;;;;;5050459;28;20277;-61
2023/06/24 12:04:33;;;;;;;0.00;0.00;;;32.70;40.00;;;;;;5050179;28;20192;-61
2023/06/24 12:06:59;;;;;;;0.00;0.00;;;32.90;40.00;;;;;;5050106;28;20185;-61
2023/06/24 12:09:25;;;;;;;0.30;0.20;;;33.00;38.80;;;;;;5049451;28;20664;-60
2023/06/24 12:11:51;;;;;;;0.00;0.00;;;33.00;38.40;;;;;;5050045;28;20181;-60
2023/06/24 12:14:17;;;;;;;0.00;0.00;;;33.10;38.60;;;;;;5050298;28;20230;-61
2023/06/24 12:16:42;;;;;;;0.00;0.00;;;33.40;39.70;;;;;;5049420;28;20263;-61
2023/06/24 12:19:08;;;;;;;0.00;0.00;;;33.50;39.00;;;;;;5050316;28;20177;-61
2023/06/24 12:21:35;;;;;;;0.03;0.03;;;33.40;37.60;;;;;;5049590;28;20529;-61
2023/06/24 12:24:01;;;;;;;0.00;0.00;;;33.30;38.40;;;;;;5050185;28;20177;-61
2023/06/24 12:26:27;;;;;;;0.00;0.00;;;33.30;39.80;;;;;;5049743;28;20212;-61
2023/06/24 12:28:56;;;;;;;0.00;0.00;;;33.40;40.30;;;;;;5049895;28;20581;-61
2023/06/24 12:31:22;;;;;;;0.00;0.00;;;33.70;38.20;;;;;;5049906;28;20177;-61
2023/06/24 12:33:48;;;;;;;0.00;0.00;;;34.00;38.60;;;;;;5049850;28;20235;-61
2023/06/24 12:36:13;;;;;;;0.00;0.00;;;34.10;37.10;;;;;;5049965;28;20243;-61
2023/06/24 12:38:39;;;;;;;0.00;0.00;;;34.10;35.70;;;;;;5049626;28;20177;-61
2023/06/24 12:41:05;;;;;;;0.00;0.00;;;33.90;35.90;;;;;;5049786;28;20181;-61
2023/06/24 12:43:32;;;;;;;0.00;0.00;;;33.60;36.60;;;;;;5050016;28;20521;-60
2023/06/24 12:45:57;;;;;;;0.10;0.10;;;33.40;37.40;;;;;;5049989;28;20508;-61
2023/06/24 12:48:23;;;;;;;0.00;0.00;;;33.40;38.30;;;;;;5052410;28;20223;-61